sensor_id;sensor_type;location;lat;lon;timestamp;P1;durP1;ratioP1;P2;durP2;ratioP2
67941;SDS011;54731;42.600;23.476;2023-03-13T00:00:08;9.07;;;4.40;;
67941;SDS011;54731;42.600;23.476;2023-03-13T00:02:34;9.40;;;4.55;;
67941;SDS011;54731;42.600;23.476;2023-03-13T00:04:59;8.73;;;4.83;;
67941;SDS011;54731;42.600;23.476;2023-03-13T00:07:24;27.60;;;10.20;;
67941;SDS011;54731;42.600;23.476;2023-03-13T00:09:50;22.17;;;9.90;;
67941;SDS011;54731;42.600;23.476;2023-03-13T00:12:15;25.40;;;9.23;;
67941;SDS011;54731;42.600;23.476;2023-03-13T00:14:40;14.93;;;7.57;;
67941;SDS011;54731;42.600;23.476;2023-03-13T00:17:06;29.30;;;11.47;;
67941;SDS011;54731;42.600;23.476;2023-03-13T00:19:31;15.80;;;7.70;;
67941;SDS011;54731;42.600;23.476;2023-03-13T00:21:56;16.97;;;8.07;;
67941;SDS011;54731;42.600;23.476;2023-03-13T00:24:22;15.90;;;7.57;;
67941;SDS011;54731;42.600;23.476;2023-03-13T00:26:47;17.77;;;7.68;;
67941;SDS011;54731;42.600;23.476;2023-03-13T00:29:12;21.40;;;9.30;;
67941;SDS011;54731;42.600;23.476;2023-03-13T00:31:37;7.90;;;4.57;;
67941;SDS011;54731;42.600;23.476;2023-03-13T00:34:03;12.53;;;6.47;;
67941;SDS011;54731;42.600;23.476;2023-03-13T00:36:32;13.23;;;6.03;;
67941;SDS011;54731;42.600;23.476;2023-03-13T00:38:58;7.65;;;3.67;;
67941;SDS011;54731;42.600;23.476;2023-03-13T00:41:25;7.57;;;4.57;;
67941;SDS011;54731;42.600;23.476;2023-03-13T00:43:52;10.00;;;4.60;;
67941;SDS011;54731;42.600;23.476;2023-03-13T00:46:19;7.78;;;4.75;;
67941;SDS011;54731;42.600;23.476;2023-03-13T00:48:46;8.32;;;4.85;;
67941;SDS011;54731;42.600;23.476;2023-03-13T00:51:12;11.83;;;6.73;;
67941;SDS011;54731;42.600;23.476;2023-03-13T00:53:39;11.13;;;5.75;;
67941;SDS011;54731;42.600;23.476;2023-03-13T00:58:33;15.88;;;7.30;;
67941;SDS011;54731;42.600;23.476;2023-03-13T01:01:07;12.80;;;4.22;;
67941;SDS011;54731;42.600;23.476;2023-03-13T01:03:32;14.70;;;6.53;;
67941;SDS011;54731;42.600;23.476;2023-03-13T01:05:58;20.10;;;7.83;;
67941;SDS011;54731;42.600;23.476;2023-03-13T01:08:25;17.50;;;7.93;;
67941;SDS011;54731;42.600;23.476;2023-03-13T01:11:01;10.68;;;5.30;;
67941;SDS011;54731;42.600;23.476;2023-03-13T01:13:35;14.82;;;7.63;;
67941;SDS011;54731;42.600;23.476;2023-03-13T01:16:02;8.00;;;4.10;;
67941;SDS011;54731;42.600;23.476;2023-03-13T01:18:28;10.88;;;5.70;;
67941;SDS011;54731;42.600;23.476;2023-03-13T01:20:53;9.43;;;5.97;;
67941;SDS011;54731;42.600;23.476;2023-03-13T01:23:19;13.43;;;7.70;;
67941;SDS011;54731;42.600;23.476;2023-03-13T01:25:44;17.60;;;8.63;;
67941;SDS011;54731;42.600;23.476;2023-03-13T01:28:09;11.37;;;5.67;;
67941;SDS011;54731;42.600;23.476;2023-03-13T01:30:35;15.07;;;7.13;;
67941;SDS011;54731;42.600;23.476;2023-03-13T01:33:00;20.30;;;8.18;;
67941;SDS011;54731;42.600;23.476;2023-03-13T01:35:25;21.53;;;9.97;;
67941;SDS011;54731;42.600;23.476;2023-03-13T01:37:50;20.57;;;10.47;;
67941;SDS011;54731;42.600;23.476;2023-03-13T01:40:16;19.97;;;9.57;;
67941;SDS011;54731;42.600;23.476;2023-03-13T01:42:48;14.37;;;6.13;;
67941;SDS011;54731;42.600;23.476;2023-03-13T01:48:21;7.60;;;4.28;;
67941;SDS011;54731;42.600;23.476;2023-03-13T01:50:54;6.03;;;3.67;;
67941;SDS011;54731;42.600;23.476;2023-03-13T01:53:22;6.50;;;3.42;;
67941;SDS011;54731;42.600;23.476;2023-03-13T01:55:49;4.78;;;2.97;;
67941;SDS011;54731;42.600;23.476;2023-03-13T01:58:17;6.82;;;3.22;;
67941;SDS011;54731;42.600;23.476;2023-03-13T02:00:42;6.20;;;4.30;;
67941;SDS011;54731;42.600;23.476;2023-03-13T02:03:10;6.32;;;3.10;;
67941;SDS011;54731;42.600;23.476;2023-03-13T02:05:39;7.57;;;4.05;;
67941;SDS011;54731;42.600;23.476;2023-03-13T02:08:07;9.38;;;4.70;;
67941;SDS011;54731;42.600;23.476;2023-03-13T02:10:41;5.55;;;2.90;;
67941;SDS011;54731;42.600;23.476;2023-03-13T02:13:14;5.13;;;2.75;;
67941;SDS011;54731;42.600;23.476;2023-03-13T02:15:41;4.28;;;2.90;;
67941;SDS011;54731;42.600;23.476;2023-03-13T02:18:06;5.33;;;2.63;;
67941;SDS011;54731;42.600;23.476;2023-03-13T02:20:32;5.30;;;3.07;;
67941;SDS011;54731;42.600;23.476;2023-03-13T02:28:17;4.35;;;2.90;;
67941;SDS011;54731;42.600;23.476;2023-03-13T02:31:02;4.20;;;2.40;;
67941;SDS011;54731;42.600;23.476;2023-03-13T02:33:29;5.13;;;2.63;;
67941;SDS011;54731;42.600;23.476;2023-03-13T02:35:57;6.55;;;2.90;;
67941;SDS011;54731;42.600;23.476;2023-03-13T02:38:25;6.28;;;3.88;;
67941;SDS011;54731;42.600;23.476;2023-03-13T02:40:53;5.67;;;3.30;;
67941;SDS011;54731;42.600;23.476;2023-03-13T02:43:25;4.78;;;3.60;;
67941;SDS011;54731;42.600;23.476;2023-03-13T02:46:05;5.55;;;4.13;;
67941;SDS011;54731;42.600;23.476;2023-03-13T02:49:09;5.63;;;2.78;;
67941;SDS011;54731;42.600;23.476;2023-03-13T02:51:41;4.38;;;2.97;;
67941;SDS011;54731;42.600;23.476;2023-03-13T02:54:09;5.87;;;3.43;;
67941;SDS011;54731;42.600;23.476;2023-03-13T02:56:42;6.45;;;3.22;;
67941;SDS011;54731;42.600;23.476;2023-03-13T02:59:09;5.00;;;3.03;;
67941;SDS011;54731;42.600;23.476;2023-03-13T03:01:34;4.63;;;2.80;;
67941;SDS011;54731;42.600;23.476;2023-03-13T03:04:00;6.30;;;3.00;;
67941;SDS011;54731;42.600;23.476;2023-03-13T03:06:25;5.00;;;2.77;;
67941;SDS011;54731;42.600;23.476;2023-03-13T03:08:50;6.07;;;2.58;;
67941;SDS011;54731;42.600;23.476;2023-03-13T03:11:16;4.80;;;2.50;;
67941;SDS011;54731;42.600;23.476;2023-03-13T03:13:41;6.53;;;3.00;;
67941;SDS011;54731;42.600;23.476;2023-03-13T03:16:10;6.23;;;3.57;;
67941;SDS011;54731;42.600;23.476;2023-03-13T03:18:37;5.25;;;2.70;;
67941;SDS011;54731;42.600;23.476;2023-03-13T03:21:03;4.70;;;3.00;;
67941;SDS011;54731;42.600;23.476;2023-03-13T03:23:29;8.75;;;3.70;;
67941;SDS011;54731;42.600;23.476;2023-03-13T03:25:54;4.97;;;3.07;;
67941;SDS011;54731;42.600;23.476;2023-03-13T03:28:19;8.57;;;3.63;;
67941;SDS011;54731;42.600;23.476;2023-03-13T03:30:44;4.83;;;3.03;;
67941;SDS011;54731;42.600;23.476;2023-03-13T03:33:10;4.63;;;3.00;;
67941;SDS011;54731;42.600;23.476;2023-03-13T03:35:35;6.22;;;3.50;;
67941;SDS011;54731;42.600;23.476;2023-03-13T03:38:00;7.23;;;3.27;;
67941;SDS011;54731;42.600;23.476;2023-03-13T03:40:26;4.00;;;2.77;;
67941;SDS011;54731;42.600;23.476;2023-03-13T03:42:51;7.20;;;3.00;;
67941;SDS011;54731;42.600;23.476;2023-03-13T03:45:16;3.83;;;2.70;;
67941;SDS011;54731;42.600;23.476;2023-03-13T03:47:42;13.17;;;5.87;;
67941;SDS011;54731;42.600;23.476;2023-03-13T03:50:07;30.83;;;13.27;;
67941;SDS011;54731;42.600;23.476;2023-03-13T03:52:33;14.50;;;6.55;;
67941;SDS011;54731;42.600;23.476;2023-03-13T03:54:58;8.53;;;3.37;;
67941;SDS011;54731;42.600;23.476;2023-03-13T03:57:23;5.50;;;3.27;;
67941;SDS011;54731;42.600;23.476;2023-03-13T03:59:49;5.57;;;2.77;;
67941;SDS011;54731;42.600;23.476;2023-03-13T04:02:14;5.60;;;2.93;;
67941;SDS011;54731;42.600;23.476;2023-03-13T04:04:39;4.35;;;2.85;;
67941;SDS011;54731;42.600;23.476;2023-03-13T04:07:05;4.97;;;3.17;;
67941;SDS011;54731;42.600;23.476;2023-03-13T04:09:30;6.80;;;2.77;;
67941;SDS011;54731;42.600;23.476;2023-03-13T04:11:55;5.30;;;2.77;;
67941;SDS011;54731;42.600;23.476;2023-03-13T04:14:21;5.87;;;2.87;;
67941;SDS011;54731;42.600;23.476;2023-03-13T04:16:46;5.10;;;3.03;;
67941;SDS011;54731;42.600;23.476;2023-03-13T04:19:11;10.43;;;3.97;;
67941;SDS011;54731;42.600;23.476;2023-03-13T04:21:37;5.53;;;3.33;;
67941;SDS011;54731;42.600;23.476;2023-03-13T04:24:02;6.50;;;3.25;;
67941;SDS011;54731;42.600;23.476;2023-03-13T04:26:27;4.60;;;3.30;;
67941;SDS011;54731;42.600;23.476;2023-03-13T04:28:53;5.97;;;2.93;;
67941;SDS011;54731;42.600;23.476;2023-03-13T04:31:18;5.90;;;3.67;;
67941;SDS011;54731;42.600;23.476;2023-03-13T04:33:43;7.83;;;3.40;;
67941;SDS011;54731;42.600;23.476;2023-03-13T04:36:08;6.87;;;3.47;;
67941;SDS011;54731;42.600;23.476;2023-03-13T04:38:34;6.27;;;3.63;;
67941;SDS011;54731;42.600;23.476;2023-03-13T04:40:59;5.37;;;3.10;;
67941;SDS011;54731;42.600;23.476;2023-03-13T04:43:24;6.37;;;3.53;;
67941;SDS011;54731;42.600;23.476;2023-03-13T04:45:52;6.90;;;4.43;;
67941;SDS011;54731;42.600;23.476;2023-03-13T04:48:18;10.40;;;7.23;;
67941;SDS011;54731;42.600;23.476;2023-03-13T04:50:43;10.03;;;5.97;;
67941;SDS011;54731;42.600;23.476;2023-03-13T04:53:08;7.63;;;4.35;;
67941;SDS011;54731;42.600;23.476;2023-03-13T04:55:33;6.37;;;3.53;;
67941;SDS011;54731;42.600;23.476;2023-03-13T04:57:59;6.00;;;3.70;;
67941;SDS011;54731;42.600;23.476;2023-03-13T05:00:24;6.40;;;3.83;;
67941;SDS011;54731;42.600;23.476;2023-03-13T05:02:49;4.20;;;3.07;;
67941;SDS011;54731;42.600;23.476;2023-03-13T05:05:15;8.07;;;3.60;;
67941;SDS011;54731;42.600;23.476;2023-03-13T05:07:40;7.53;;;3.57;;
67941;SDS011;54731;42.600;23.476;2023-03-13T05:10:05;8.50;;;3.93;;
67941;SDS011;54731;42.600;23.476;2023-03-13T05:12:31;5.80;;;3.45;;
67941;SDS011;54731;42.600;23.476;2023-03-13T05:14:56;7.23;;;3.63;;
67941;SDS011;54731;42.600;23.476;2023-03-13T05:17:21;7.73;;;4.60;;
67941;SDS011;54731;42.600;23.476;2023-03-13T05:19:47;9.93;;;4.17;;
67941;SDS011;54731;42.600;23.476;2023-03-13T05:22:12;6.30;;;3.53;;
67941;SDS011;54731;42.600;23.476;2023-03-13T05:24:37;7.20;;;4.23;;
67941;SDS011;54731;42.600;23.476;2023-03-13T05:27:03;6.33;;;4.23;;
67941;SDS011;54731;42.600;23.476;2023-03-13T05:29:28;5.90;;;3.80;;
67941;SDS011;54731;42.600;23.476;2023-03-13T05:31:53;9.40;;;4.35;;
67941;SDS011;54731;42.600;23.476;2023-03-13T05:34:18;12.35;;;6.55;;
67941;SDS011;54731;42.600;23.476;2023-03-13T05:36:44;13.47;;;7.17;;
67941;SDS011;54731;42.600;23.476;2023-03-13T05:39:09;14.20;;;7.27;;
67941;SDS011;54731;42.600;23.476;2023-03-13T05:41:34;10.33;;;6.20;;
67941;SDS011;54731;42.600;23.476;2023-03-13T05:44:00;10.67;;;6.10;;
67941;SDS011;54731;42.600;23.476;2023-03-13T05:46:25;14.43;;;7.13;;
67941;SDS011;54731;42.600;23.476;2023-03-13T05:48:50;17.23;;;7.97;;
67941;SDS011;54731;42.600;23.476;2023-03-13T05:51:16;22.77;;;9.20;;
67941;SDS011;54731;42.600;23.476;2023-03-13T05:53:41;14.73;;;7.80;;
67941;SDS011;54731;42.600;23.476;2023-03-13T05:56:06;13.10;;;7.97;;
67941;SDS011;54731;42.600;23.476;2023-03-13T05:58:31;18.30;;;8.90;;
67941;SDS011;54731;42.600;23.476;2023-03-13T06:00:57;8.93;;;5.73;;
67941;SDS011;54731;42.600;23.476;2023-03-13T06:03:22;12.97;;;6.63;;
67941;SDS011;54731;42.600;23.476;2023-03-13T06:05:47;15.73;;;8.53;;
67941;SDS011;54731;42.600;23.476;2023-03-13T06:08:13;15.37;;;7.63;;
67941;SDS011;54731;42.600;23.476;2023-03-13T06:10:38;15.63;;;8.13;;
67941;SDS011;54731;42.600;23.476;2023-03-13T06:13:03;17.30;;;8.20;;
67941;SDS011;54731;42.600;23.476;2023-03-13T06:15:28;20.33;;;8.23;;
67941;SDS011;54731;42.600;23.476;2023-03-13T06:17:54;12.13;;;8.30;;
67941;SDS011;54731;42.600;23.476;2023-03-13T06:20:19;12.05;;;7.20;;
67941;SDS011;54731;42.600;23.476;2023-03-13T06:22:44;16.65;;;7.88;;
67941;SDS011;54731;42.600;23.476;2023-03-13T06:25:10;13.20;;;7.13;;
67941;SDS011;54731;42.600;23.476;2023-03-13T06:27:35;12.33;;;7.80;;
67941;SDS011;54731;42.600;23.476;2023-03-13T06:30:01;24.37;;;8.60;;
67941;SDS011;54731;42.600;23.476;2023-03-13T06:32:27;15.32;;;8.25;;
67941;SDS011;54731;42.600;23.476;2023-03-13T06:34:52;13.03;;;7.20;;
67941;SDS011;54731;42.600;23.476;2023-03-13T06:37:17;12.73;;;7.67;;
67941;SDS011;54731;42.600;23.476;2023-03-13T06:39:43;14.43;;;8.65;;
67941;SDS011;54731;42.600;23.476;2023-03-13T06:42:08;13.37;;;7.03;;
67941;SDS011;54731;42.600;23.476;2023-03-13T06:44:33;11.17;;;6.87;;
67941;SDS011;54731;42.600;23.476;2023-03-13T06:46:59;9.87;;;6.70;;
67941;SDS011;54731;42.600;23.476;2023-03-13T06:49:24;14.23;;;7.60;;
67941;SDS011;54731;42.600;23.476;2023-03-13T06:51:49;14.67;;;5.30;;
67941;SDS011;54731;42.600;23.476;2023-03-13T06:54:15;14.13;;;7.57;;
67941;SDS011;54731;42.600;23.476;2023-03-13T06:56:40;30.27;;;14.20;;
67941;SDS011;54731;42.600;23.476;2023-03-13T06:59:05;18.53;;;9.60;;
67941;SDS011;54731;42.600;23.476;2023-03-13T07:01:30;24.80;;;11.02;;
67941;SDS011;54731;42.600;23.476;2023-03-13T07:03:56;16.80;;;9.97;;
67941;SDS011;54731;42.600;23.476;2023-03-13T07:06:21;19.27;;;8.90;;
67941;SDS011;54731;42.600;23.476;2023-03-13T07:08:46;19.60;;;8.93;;
67941;SDS011;54731;42.600;23.476;2023-03-13T07:11:12;20.73;;;9.20;;
67941;SDS011;54731;42.600;23.476;2023-03-13T07:13:38;15.23;;;8.73;;
67941;SDS011;54731;42.600;23.476;2023-03-13T07:16:05;15.37;;;8.40;;
67941;SDS011;54731;42.600;23.476;2023-03-13T07:18:35;16.63;;;7.82;;
67941;SDS011;54731;42.600;23.476;2023-03-13T07:21:01;15.87;;;8.53;;
67941;SDS011;54731;42.600;23.476;2023-03-13T07:23:28;14.02;;;6.57;;
67941;SDS011;54731;42.600;23.476;2023-03-13T07:25:54;13.57;;;6.67;;
67941;SDS011;54731;42.600;23.476;2023-03-13T07:28:21;11.73;;;6.43;;
67941;SDS011;54731;42.600;23.476;2023-03-13T07:30:47;14.80;;;7.60;;
67941;SDS011;54731;42.600;23.476;2023-03-13T07:33:12;10.33;;;7.03;;
67941;SDS011;54731;42.600;23.476;2023-03-13T07:35:38;12.30;;;8.17;;
67941;SDS011;54731;42.600;23.476;2023-03-13T07:38:03;14.55;;;7.45;;
67941;SDS011;54731;42.600;23.476;2023-03-13T07:40:28;13.00;;;6.93;;
67941;SDS011;54731;42.600;23.476;2023-03-13T07:42:54;13.63;;;7.80;;
67941;SDS011;54731;42.600;23.476;2023-03-13T07:45:19;9.27;;;6.63;;
67941;SDS011;54731;42.600;23.476;2023-03-13T07:47:44;14.77;;;7.63;;
67941;SDS011;54731;42.600;23.476;2023-03-13T07:50:10;12.47;;;7.63;;
67941;SDS011;54731;42.600;23.476;2023-03-13T07:52:35;13.47;;;7.37;;
67941;SDS011;54731;42.600;23.476;2023-03-13T07:55:00;15.07;;;8.60;;
67941;SDS011;54731;42.600;23.476;2023-03-13T07:57:26;15.27;;;8.73;;
67941;SDS011;54731;42.600;23.476;2023-03-13T07:59:51;13.50;;;8.30;;
67941;SDS011;54731;42.600;23.476;2023-03-13T08:02:16;15.03;;;8.20;;
67941;SDS011;54731;42.600;23.476;2023-03-13T08:04:41;13.93;;;8.13;;
67941;SDS011;54731;42.600;23.476;2023-03-13T08:07:10;11.77;;;7.90;;
67941;SDS011;54731;42.600;23.476;2023-03-13T08:09:37;10.65;;;6.80;;
67941;SDS011;54731;42.600;23.476;2023-03-13T08:12:02;14.73;;;7.70;;
67941;SDS011;54731;42.600;23.476;2023-03-13T08:14:28;20.10;;;7.70;;
67941;SDS011;54731;42.600;23.476;2023-03-13T08:16:53;16.50;;;8.60;;
67941;SDS011;54731;42.600;23.476;2023-03-13T08:19:19;16.88;;;8.82;;
67941;SDS011;54731;42.600;23.476;2023-03-13T08:21:44;15.37;;;8.50;;
67941;SDS011;54731;42.600;23.476;2023-03-13T08:24:09;18.73;;;9.63;;
67941;SDS011;54731;42.600;23.476;2023-03-13T08:26:36;19.85;;;9.20;;
67941;SDS011;54731;42.600;23.476;2023-03-13T08:29:05;16.30;;;8.73;;
67941;SDS011;54731;42.600;23.476;2023-03-13T08:31:33;19.30;;;9.00;;
67941;SDS011;54731;42.600;23.476;2023-03-13T08:34:00;16.35;;;8.93;;
67941;SDS011;54731;42.600;23.476;2023-03-13T08:36:30;15.80;;;7.77;;
67941;SDS011;54731;42.600;23.476;2023-03-13T08:38:58;11.50;;;7.88;;
67941;SDS011;54731;42.600;23.476;2023-03-13T08:41:25;14.60;;;8.20;;
67941;SDS011;54731;42.600;23.476;2023-03-13T08:43:53;12.15;;;7.95;;
67941;SDS011;54731;42.600;23.476;2023-03-13T08:46:19;10.93;;;7.53;;
67941;SDS011;54731;42.600;23.476;2023-03-13T08:48:47;16.73;;;8.55;;
67941;SDS011;54731;42.600;23.476;2023-03-13T08:51:14;12.20;;;7.85;;
67941;SDS011;54731;42.600;23.476;2023-03-13T08:53:40;11.50;;;7.10;;
67941;SDS011;54731;42.600;23.476;2023-03-13T08:56:07;13.60;;;7.68;;
67941;SDS011;54731;42.600;23.476;2023-03-13T08:58:33;11.43;;;7.18;;
67941;SDS011;54731;42.600;23.476;2023-03-13T09:01:03;11.80;;;6.83;;
67941;SDS011;54731;42.600;23.476;2023-03-13T09:03:30;23.15;;;9.05;;
67941;SDS011;54731;42.600;23.476;2023-03-13T09:05:57;14.68;;;7.95;;
67941;SDS011;54731;42.600;23.476;2023-03-13T09:08:23;14.20;;;7.07;;
67941;SDS011;54731;42.600;23.476;2023-03-13T09:10:55;11.63;;;7.28;;
67941;SDS011;54731;42.600;23.476;2023-03-13T09:13:21;12.90;;;7.57;;
67941;SDS011;54731;42.600;23.476;2023-03-13T09:15:56;12.67;;;7.43;;
67941;SDS011;54731;42.600;23.476;2023-03-13T09:18:26;10.75;;;6.95;;
67941;SDS011;54731;42.600;23.476;2023-03-13T09:20:51;9.83;;;6.67;;
67941;SDS011;54731;42.600;23.476;2023-03-13T09:23:17;12.63;;;7.28;;
67941;SDS011;54731;42.600;23.476;2023-03-13T09:25:43;10.18;;;6.78;;
67941;SDS011;54731;42.600;23.476;2023-03-13T09:28:08;12.60;;;6.97;;
67941;SDS011;54731;42.600;23.476;2023-03-13T09:30:34;11.73;;;7.22;;
67941;SDS011;54731;42.600;23.476;2023-03-13T09:32:59;12.93;;;7.40;;
67941;SDS011;54731;42.600;23.476;2023-03-13T09:35:24;13.87;;;7.90;;
67941;SDS011;54731;42.600;23.476;2023-03-13T09:37:50;10.87;;;6.47;;
67941;SDS011;54731;42.600;23.476;2023-03-13T09:40:16;13.47;;;7.50;;
67941;SDS011;54731;42.600;23.476;2023-03-13T09:42:51;11.38;;;7.43;;
67941;SDS011;54731;42.600;23.476;2023-03-13T09:48:07;15.00;;;7.38;;
67941;SDS011;54731;42.600;23.476;2023-03-13T09:50:41;10.20;;;7.20;;
67941;SDS011;54731;42.600;23.476;2023-03-13T09:53:14;10.77;;;7.57;;
67941;SDS011;54731;42.600;23.476;2023-03-13T09:55:48;12.30;;;7.20;;
67941;SDS011;54731;42.600;23.476;2023-03-13T09:58:22;12.57;;;8.00;;
67941;SDS011;54731;42.600;23.476;2023-03-13T10:00:53;12.50;;;7.72;;
67941;SDS011;54731;42.600;23.476;2023-03-13T10:03:29;10.18;;;6.70;;
67941;SDS011;54731;42.600;23.476;2023-03-13T10:06:09;11.40;;;7.00;;
67941;SDS011;54731;42.600;23.476;2023-03-13T10:08:39;11.43;;;7.72;;
67941;SDS011;54731;42.600;23.476;2023-03-13T10:14:06;10.77;;;6.57;;
67941;SDS011;54731;42.600;23.476;2023-03-13T10:19:37;11.07;;;6.82;;
67941;SDS011;54731;42.600;23.476;2023-03-13T10:22:10;13.00;;;7.40;;
67941;SDS011;54731;42.600;23.476;2023-03-13T10:24:49;12.50;;;6.47;;
67941;SDS011;54731;42.600;23.476;2023-03-13T10:27:23;10.85;;;6.28;;
67941;SDS011;54731;42.600;23.476;2023-03-13T10:29:49;12.63;;;7.03;;
67941;SDS011;54731;42.600;23.476;2023-03-13T10:32:15;10.43;;;6.63;;
67941;SDS011;54731;42.600;23.476;2023-03-13T10:37:13;9.45;;;6.75;;
67941;SDS011;54731;42.600;23.476;2023-03-13T10:39:40;12.13;;;7.72;;
67941;SDS011;54731;42.600;23.476;2023-03-13T10:42:10;11.83;;;7.00;;
67941;SDS011;54731;42.600;23.476;2023-03-13T10:44:43;10.27;;;7.40;;
67941;SDS011;54731;42.600;23.476;2023-03-13T10:47:10;10.43;;;6.60;;
67941;SDS011;54731;42.600;23.476;2023-03-13T10:49:45;12.80;;;7.40;;
67941;SDS011;54731;42.600;23.476;2023-03-13T10:52:26;11.57;;;7.45;;
67941;SDS011;54731;42.600;23.476;2023-03-13T10:54:58;12.02;;;6.88;;
67941;SDS011;54731;42.600;23.476;2023-03-13T10:57:29;12.80;;;7.80;;
67941;SDS011;54731;42.600;23.476;2023-03-13T10:59:58;15.20;;;7.28;;
67941;SDS011;54731;42.600;23.476;2023-03-13T11:02:31;14.52;;;7.50;;
67941;SDS011;54731;42.600;23.476;2023-03-13T11:04:59;10.65;;;7.68;;
67941;SDS011;54731;42.600;23.476;2023-03-13T11:07:31;11.18;;;7.43;;
67941;SDS011;54731;42.600;23.476;2023-03-13T11:09:59;9.80;;;6.90;;
67941;SDS011;54731;42.600;23.476;2023-03-13T11:12:32;11.98;;;7.00;;
67941;SDS011;54731;42.600;23.476;2023-03-13T11:14:59;9.02;;;6.97;;
67941;SDS011;54731;42.600;23.476;2023-03-13T11:17:29;11.85;;;7.25;;
67941;SDS011;54731;42.600;23.476;2023-03-13T11:30:18;12.77;;;7.13;;
67941;SDS011;54731;42.600;23.476;2023-03-13T11:32:57;13.93;;;8.02;;
67941;SDS011;54731;42.600;23.476;2023-03-13T11:35:46;10.35;;;6.40;;
67941;SDS011;54731;42.600;23.476;2023-03-13T11:38:29;10.77;;;6.57;;
67941;SDS011;54731;42.600;23.476;2023-03-13T11:46:14;10.65;;;6.40;;
67941;SDS011;54731;42.600;23.476;2023-03-13T11:54:34;8.07;;;6.53;;
67941;SDS011;54731;42.600;23.476;2023-03-13T11:57:33;10.00;;;6.32;;
67941;SDS011;54731;42.600;23.476;2023-03-13T12:05:48;9.23;;;6.50;;
67941;SDS011;54731;42.600;23.476;2023-03-13T12:08:30;8.13;;;6.32;;
67941;SDS011;54731;42.600;23.476;2023-03-13T12:13:34;8.23;;;6.47;;
67941;SDS011;54731;42.600;23.476;2023-03-13T12:16:38;9.32;;;6.05;;
67941;SDS011;54731;42.600;23.476;2023-03-13T12:19:32;9.52;;;6.68;;
67941;SDS011;54731;42.600;23.476;2023-03-13T12:22:11;8.55;;;6.57;;
67941;SDS011;54731;42.600;23.476;2023-03-13T12:24:45;8.90;;;6.32;;
67941;SDS011;54731;42.600;23.476;2023-03-13T12:27:19;9.80;;;6.80;;
67941;SDS011;54731;42.600;23.476;2023-03-13T12:29:57;7.28;;;5.45;;
67941;SDS011;54731;42.600;23.476;2023-03-13T12:32:49;10.18;;;5.50;;
67941;SDS011;54731;42.600;23.476;2023-03-13T12:35:26;8.10;;;6.45;;
67941;SDS011;54731;42.600;23.476;2023-03-13T12:40:26;9.73;;;6.32;;
67941;SDS011;54731;42.600;23.476;2023-03-13T12:43:11;5.82;;;5.22;;
67941;SDS011;54731;42.600;23.476;2023-03-13T12:46:26;8.82;;;5.90;;
67941;SDS011;54731;42.600;23.476;2023-03-13T12:59:59;7.95;;;6.13;;
67941;SDS011;54731;42.600;23.476;2023-03-13T13:02:28;7.53;;;5.97;;
67941;SDS011;54731;42.600;23.476;2023-03-13T13:04:54;9.80;;;6.00;;
67941;SDS011;54731;42.600;23.476;2023-03-13T13:10:02;7.60;;;5.97;;
67941;SDS011;54731;42.600;23.476;2023-03-13T13:12:40;8.35;;;6.25;;
67941;SDS011;54731;42.600;23.476;2023-03-13T13:15:18;6.90;;;5.68;;
67941;SDS011;54731;42.600;23.476;2023-03-13T13:17:48;9.27;;;6.13;;
67941;SDS011;54731;42.600;23.476;2023-03-13T13:25:49;9.43;;;5.75;;
67941;SDS011;54731;42.600;23.476;2023-03-13T13:30:41;7.70;;;5.88;;
67941;SDS011;54731;42.600;23.476;2023-03-13T13:38:38;8.65;;;5.68;;
67941;SDS011;54731;42.600;23.476;2023-03-13T13:43:37;10.27;;;5.82;;
67941;SDS011;54731;42.600;23.476;2023-03-13T13:48:33;7.43;;;5.10;;
67941;SDS011;54731;42.600;23.476;2023-03-13T13:58:59;8.32;;;6.30;;
67941;SDS011;54731;42.600;23.476;2023-03-13T14:01:25;8.57;;;6.00;;
67941;SDS011;54731;42.600;23.476;2023-03-13T14:03:53;7.73;;;6.63;;
67941;SDS011;54731;42.600;23.476;2023-03-13T14:06:24;10.57;;;6.93;;
67941;SDS011;54731;42.600;23.476;2023-03-13T14:08:54;9.40;;;6.93;;
67941;SDS011;54731;42.600;23.476;2023-03-13T14:11:24;9.20;;;5.85;;
67941;SDS011;54731;42.600;23.476;2023-03-13T14:16:34;10.30;;;7.63;;
67941;SDS011;54731;42.600;23.476;2023-03-13T14:19:01;15.82;;;9.57;;
67941;SDS011;54731;42.600;23.476;2023-03-13T14:21:27;10.13;;;7.63;;
67941;SDS011;54731;42.600;23.476;2023-03-13T14:23:52;11.33;;;6.13;;
67941;SDS011;54731;42.600;23.476;2023-03-13T14:26:21;7.57;;;5.93;;
67941;SDS011;54731;42.600;23.476;2023-03-13T14:28:53;11.38;;;6.85;;
67941;SDS011;54731;42.600;23.476;2023-03-13T14:31:22;7.28;;;5.82;;
67941;SDS011;54731;42.600;23.476;2023-03-13T14:33:51;11.68;;;7.28;;
67941;SDS011;54731;42.600;23.476;2023-03-13T14:36:17;12.20;;;7.67;;
67941;SDS011;54731;42.600;23.476;2023-03-13T14:38:52;18.02;;;7.65;;
67941;SDS011;54731;42.600;23.476;2023-03-13T14:41:23;7.45;;;5.30;;
67941;SDS011;54731;42.600;23.476;2023-03-13T14:43:52;7.57;;;5.68;;
67941;SDS011;54731;42.600;23.476;2023-03-13T14:48:43;8.63;;;5.97;;
67941;SDS011;54731;42.600;23.476;2023-03-13T14:51:09;13.43;;;7.50;;
67941;SDS011;54731;42.600;23.476;2023-03-13T14:53:54;9.48;;;7.07;;
67941;SDS011;54731;42.600;23.476;2023-03-13T14:59:32;34.30;;;22.80;;
67941;SDS011;54731;42.600;23.476;2023-03-13T15:02:01;17.25;;;12.30;;
67941;SDS011;54731;42.600;23.476;2023-03-13T15:04:53;14.35;;;10.50;;
67941;SDS011;54731;42.600;23.476;2023-03-13T15:07:19;42.55;;;33.15;;
67941;SDS011;54731;42.600;23.476;2023-03-13T15:09:46;69.38;;;49.00;;
67941;SDS011;54731;42.600;23.476;2023-03-13T15:12:17;49.23;;;35.63;;
67941;SDS011;54731;42.600;23.476;2023-03-13T15:14:46;17.90;;;13.70;;
67941;SDS011;54731;42.600;23.476;2023-03-13T15:17:23;27.40;;;20.90;;
67941;SDS011;54731;42.600;23.476;2023-03-13T15:19:53;23.73;;;14.20;;
67941;SDS011;54731;42.600;23.476;2023-03-13T15:22:23;16.95;;;13.02;;
67941;SDS011;54731;42.600;23.476;2023-03-13T15:24:52;68.70;;;53.20;;
67941;SDS011;54731;42.600;23.476;2023-03-13T15:27:19;110.35;;;91.18;;
67941;SDS011;54731;42.600;23.476;2023-03-13T15:29:46;45.10;;;36.87;;
67941;SDS011;54731;42.600;23.476;2023-03-13T15:32:33;37.55;;;30.73;;
67941;SDS011;54731;42.600;23.476;2023-03-13T15:34:58;59.55;;;53.15;;
67941;SDS011;54731;42.600;23.476;2023-03-13T15:37:24;194.43;;;125.43;;
67941;SDS011;54731;42.600;23.476;2023-03-13T15:39:50;152.73;;;106.43;;
67941;SDS011;54731;42.600;23.476;2023-03-13T15:42:15;174.98;;;125.25;;
67941;SDS011;54731;42.600;23.476;2023-03-13T15:44:41;189.47;;;127.53;;
67941;SDS011;54731;42.600;23.476;2023-03-13T15:47:08;113.90;;;80.33;;
67941;SDS011;54731;42.600;23.476;2023-03-13T15:49:36;104.47;;;74.45;;
67941;SDS011;54731;42.600;23.476;2023-03-13T15:52:01;171.13;;;102.20;;
67941;SDS011;54731;42.600;23.476;2023-03-13T15:54:26;113.90;;;59.17;;
67941;SDS011;54731;42.600;23.476;2023-03-13T15:56:51;166.13;;;88.33;;
67941;SDS011;54731;42.600;23.476;2023-03-13T15:59:17;148.00;;;86.30;;
67941;SDS011;54731;42.600;23.476;2023-03-13T16:01:43;110.70;;;65.25;;
67941;SDS011;54731;42.600;23.476;2023-03-13T16:04:08;82.67;;;54.23;;
67941;SDS011;54731;42.600;23.476;2023-03-13T16:06:34;84.75;;;54.38;;
67941;SDS011;54731;42.600;23.476;2023-03-13T16:09:00;64.27;;;42.33;;
67941;SDS011;54731;42.600;23.476;2023-03-13T16:11:28;166.80;;;96.13;;